fecha-hora | temperatura | viento dirección-velocidad-rachas | humedad | presión

  • 03-04-2020 22:00:00 | 2.80°C | Este-7.00 km/h - 14.00 km/h | 69.00% | 848.10 hPa
  • 03-04-2020 21:00:00 | 5.20°C | Sudeste-7.00 km/h - 14.00 km/h | 61.00% | 847.60 hPa
  • 03-04-2020 20:00:00 | 9.30°C | Sur-8.00 km/h - 14.00 km/h | 46.00% | 847.60 hPa
  • 03-04-2020 19:00:00 | 10.90°C | Sur-9.00 km/h - 26.00 km/h | 42.00% | 847.30 hPa
  • 03-04-2020 18:00:00 | 10.90°C | Sudeste-17.00 km/h - 31.00 km/h | 43.00% | 847.20 hPa
  • 03-04-2020 17:00:00 | 11.70°C | Noroeste-10.00 km/h - 28.00 km/h | 51.00% | 847.30 hPa
  • 03-04-2020 16:00:00 | 11.60°C | Este-17.00 km/h - 40.00 km/h | 41.00% | 847.60 hPa
  • 03-04-2020 15:00:00 | 11.10°C | Este-17.00 km/h - 26.00 km/h | 45.00% | 847.60 hPa
  • 03-04-2020 14:00:00 | 8.80°C | Oeste-12.00 km/h - 25.00 km/h | 46.00% | 848.10 hPa
  • 03-04-2020 13:00:00 | 7.10°C | Oeste-21.00 km/h - 29.00 km/h | 46.00% | 848.50 hPa
  • 03-04-2020 12:00:00 | 6.60°C | Oeste-18.00 km/h - 25.00 km/h | 49.00% | 848.40 hPa
  • 03-04-2020 11:00:00 | 5.40°C | Oeste-16.00 km/h - 23.00 km/h | 60.00% | 848.20 hPa
  • 03-04-2020 10:00:00 | 1.50°C | Sudeste-2.00 km/h - 7.00 km/h | 75.00% | 848.10 hPa
  • 03-04-2020 09:00:00 | -3.30°C | Este-3.00 km/h - 5.00 km/h | 89.00% | 848.00 hPa
  • 03-04-2020 08:00:00 | -6.00°C | Calma-0.00 km/h - 5.00 km/h | 88.00% | 847.60 hPa
  • 03-04-2020 07:00:00 | -5.70°C | Calma-0.00 km/h - 4.00 km/h | 88.00% | 847.60 hPa
  • 03-04-2020 06:00:00 | -5.40°C | Calma-0.00 km/h - 6.00 km/h | 87.00% | 847.50 hPa
  • 03-04-2020 05:00:00 | -4.30°C | Calma-0.00 km/h - 9.00 km/h | 89.00% | 847.50 hPa
  • 03-04-2020 04:00:00 | -3.50°C | Oeste-6.00 km/h - 10.00 km/h | 89.00% | 847.80 hPa
  • 03-04-2020 03:00:00 | -2.60°C | Oeste-5.00 km/h - 12.00 km/h | 89.00% | 848.10 hPa
  • 03-04-2020 02:00:00 | -1.20°C | Oeste-7.00 km/h - 20.00 km/h | 86.00% | 848.60 hPa
  • 03-04-2020 01:00:00 | -0.10°C | Oeste-10.00 km/h - 27.00 km/h | 89.00% | 848.80 hPa
  • 03-04-2020 00:00:00 | 0.30°C | Oeste-13.00 km/h - 22.00 km/h | 80.00% | 849.00 hPa
  • 02-04-2020 23:00:00 | 0.70°C | Noroeste-10.00 km/h - 25.00 km/h | 84.00% | 848.90 hPa
    • diseño web asturias Información sobre el estado de las mareas, altura de la marejada, temperatura del agua y otros datos de Gijón en Asturias.

      Surf Gijón